Juergen K — PBKV — position and weather

sailwx.info

Track history (hours):
 
Tides and Currents Weather Stations Pressure Air Temp Water Temp Dewpoint Dewpoint Depression Visibility Wind Speed Wind Dir Waves Ship Positions

Juergen K

Last reported at 2015-Jul-01 06:32 UTC. Time now 2015-Jul-02 03:38 UTC.
Position N 46°02' W 001°34'.

Length 89 m; draft 5.2 m.

Type: Cargo ship. MMSI: 244329000.

Date/timePositionNaut miles runAvg speedWind from/ knotsBaromVisibWave heightAir tempDewpointWater temp
2015-Jul-01 06:32N 46°02' W 001°34'1010.3
2015-Jul-01 05:33N 46°05' W 001°20'8 8.5
2015-Jul-01 04:33N 45°60' W 001°11'8 7.6
2015-Jul-01 03:31N 45°58' W 000°60'2 2.3
2015-Jul-01 02:29N 45°57' W 000°56'3 0.1
2015-Jun-30 00:33N 45°56' W 001°01'8 7.7
2015-Jun-29 23:34N 45°60' W 001°10'4 4.2
2015-Jun-29 22:31N 46°04' W 001°14'0 0.0
2015-Jun-29 21:31N 46°04' W 001°14'0 0.0
2015-Jun-29 20:28N 46°04' W 001°14'0 0.0
2015-Jun-29 19:31N 46°04' W 001°14'0 0.0
2015-Jun-29 18:28N 46°04' W 001°14'0 0.0
2015-Jun-29 17:31N 46°04' W 001°14'0 0.1
2015-Jun-29 16:31N 46°04' W 001°14'0 0.0
2015-Jun-29 15:31N 46°04' W 001°14'0 0.0
2015-Jun-29 14:31N 46°04' W 001°14'0 0.0
2015-Jun-29 13:28N 46°04' W 001°14'0 0.0
2015-Jun-29 12:28N 46°04' W 001°14'0 0.0
2015-Jun-29 11:31N 46°04' W 001°14'0 0.0
2015-Jun-29 10:28N 46°04' W 001°14'0 0.0
2015-Jun-29 09:28N 46°04' W 001°14'0 0.0
2015-Jun-29 08:31N 46°04' W 001°14'0 0.0
2015-Jun-29 07:28N 46°04' W 001°14'0 0.0
2015-Jun-29 06:31N 46°04' W 001°14'0 0.0
2015-Jun-29 05:31N 46°04' W 001°14'0 0.0
2015-Jun-29 04:28N 46°04' W 001°14'0 0.1
2015-Jun-29 03:31N 46°04' W 001°14'0 0.0
2015-Jun-29 02:31N 46°04' W 001°14'0 0.0
2015-Jun-29 01:31N 46°04' W 001°14'0 0.0
2015-Jun-29 00:31N 46°04' W 001°14'0 0.0
2015-Jun-28 23:28N 46°04' W 001°14'0 0.0
2015-Jun-28 22:31N 46°04' W 001°14'0 0.0
2015-Jun-28 21:28N 46°04' W 001°14'0 0.0
2015-Jun-28 20:31N 46°04' W 001°14'0 0.0
2015-Jun-28 19:22N 46°04' W 001°14'0 0.0
2015-Jun-28 18:31N 46°04' W 001°14'0 0.0
2015-Jun-28 17:31N 46°04' W 001°14'0 0.0
2015-Jun-28 16:31N 46°04' W 001°14'0 0.0
2015-Jun-28 15:31N 46°04' W 001°14'0 0.0
2015-Jun-28 14:31N 46°04' W 001°14'0 0.0
2015-Jun-28 13:28N 46°04' W 001°14'0 0.0
2015-Jun-28 12:31N 46°04' W 001°14'0 0.0
2015-Jun-28 11:31N 46°04' W 001°14'0 0.0
2015-Jun-28 10:31N 46°04' W 001°14'0 0.0
2015-Jun-28 09:31N 46°04' W 001°14'0 0.0
2015-Jun-28 08:31N 46°04' W 001°14'0 0.0
2015-Jun-28 07:31N 46°04' W 001°14'0 0.0
2015-Jun-28 06:28N 46°04' W 001°14'0 0.0
2015-Jun-28 05:31N 46°04' W 001°14'0 0.0
2015-Jun-28 04:31N 46°04' W 001°14'0 0.0
2015-Jun-28 03:28N 46°04' W 001°14'0 0.0
2015-Jun-28 02:31N 46°04' W 001°14'0 0.1
2015-Jun-28 01:31N 46°04' W 001°14'0 0.0
2015-Jun-28 00:31N 46°04' W 001°14'0 0.0
2015-Jun-27 23:31N 46°04' W 001°14'0 0.0
2015-Jun-27 22:31N 46°04' W 001°14'0 0.0
2015-Jun-27 21:31N 46°04' W 001°14'0 0.0
2015-Jun-27 20:28N 46°04' W 001°14'0 0.0
2015-Jun-27 19:31N 46°04' W 001°14'0 0.0
2015-Jun-27 18:31N 46°04' W 001°14'0 0.0
2015-Jun-27 17:28N 46°04' W 001°14'0 0.0
2015-Jun-27 16:28N 46°04' W 001°14'0 0.0
2015-Jun-27 15:28N 46°04' W 001°14'0 0.0
2015-Jun-27 14:31N 46°04' W 001°14'0 0.0
2015-Jun-27 13:28N 46°04' W 001°14'0 0.0
2015-Jun-27 12:28N 46°04' W 001°14'0 0.0
2015-Jun-27 11:31N 46°04' W 001°14'0 0.0
2015-Jun-27 10:31N 46°04' W 001°14'0 0.0
2015-Jun-27 09:31N 46°04' W 001°14'0 0.0
2015-Jun-27 08:31N 46°04' W 001°14'0 0.0
2015-Jun-27 07:31N 46°04' W 001°14'0 0.0
2015-Jun-27 06:25N 46°04' W 001°14'0 0.1
2015-Jun-27 05:28N 46°04' W 001°14'0 0.0
2015-Jun-27 04:31N 46°04' W 001°14'0 0.0
2015-Jun-27 03:28N 46°04' W 001°14'0 0.1
2015-Jun-27 02:28N 46°04' W 001°14'0 0.0
2015-Jun-27 01:31N 46°04' W 001°14'0 0.0
2015-Jun-27 00:31N 46°04' W 001°14'0 0.0
2015-Jun-26 23:31N 46°04' W 001°14'0 0.0
2015-Jun-26 22:28N 46°04' W 001°14'0 0.0
2015-Jun-26 21:28N 46°04' W 001°14'0 0.0
2015-Jun-26 20:28N 46°04' W 001°14'0 0.0
2015-Jun-26 19:31N 46°04' W 001°14'0 0.0
2015-Jun-26 18:28N 46°04' W 001°14'0 0.0
2015-Jun-26 17:28N 46°04' W 001°14'0 0.0
2015-Jun-26 16:31N 46°04' W 001°14'0 0.0
2015-Jun-26 15:31N 46°04' W 001°14'0 0.1
2015-Jun-26 14:28N 46°04' W 001°14'0 0.0
2015-Jun-26 13:25N 46°04' W 001°14'0 0.0
2015-Jun-26 12:31N 46°04' W 001°14'0 0.0
2015-Jun-26 11:28N 46°04' W 001°14'0 0.0
2015-Jun-26 10:31N 46°04' W 001°14'0 0.0
2015-Jun-26 09:31N 46°04' W 001°14'0 0.0
2015-Jun-26 08:31N 46°04' W 001°14'0 0.0
2015-Jun-26 07:31N 46°04' W 001°14'0 0.1
2015-Jun-26 06:31N 46°04' W 001°14'0 0.0
2015-Jun-26 05:28N 46°04' W 001°14'0 0.1
2015-Jun-26 04:31N 46°04' W 001°14'0 0.0
2015-Jun-26 03:31N 46°04' W 001°14'0 0.0
2015-Jun-26 02:28N 46°04' W 001°14'0 0.0
2015-Jun-26 01:31N 46°04' W 001°14'0 0.0
2015-Jun-26 00:31N 46°04' W 001°14'0 0.0
2015-Jun-25 23:31N 46°04' W 001°14'0 0.0
2015-Jun-25 22:31N 46°04' W 001°14'0 0.0
2015-Jun-25 21:28N 46°04' W 001°14'0 0.0
2015-Jun-25 20:31N 46°04' W 001°14'0 0.0
2015-Jun-25 19:31N 46°04' W 001°14'0 0.0
2015-Jun-25 18:28N 46°04' W 001°14'0 0.0
2015-Jun-25 17:31N 46°04' W 001°14'0 0.0
2015-Jun-25 16:31N 46°04' W 001°14'0 0.0
2015-Jun-25 15:28N 46°04' W 001°14'0 0.0
2015-Jun-25 14:31N 46°04' W 001°14'0 0.0
2015-Jun-25 13:31N 46°04' W 001°14'0 0.1
2015-Jun-25 12:31N 46°04' W 001°14'0 0.0
2015-Jun-25 11:31N 46°04' W 001°14'0 0.0
2015-Jun-25 10:31N 46°04' W 001°14'0 0.0
2015-Jun-25 09:28N 46°04' W 001°14'0 0.0
2015-Jun-25 08:28N 46°04' W 001°14'0 0.0
2015-Jun-25 07:31N 46°04' W 001°14'0 0.0
2015-Jun-25 06:31N 46°04' W 001°14'0 0.0
2015-Jun-25 05:31N 46°04' W 001°14'0 0.1
2015-Jun-25 04:31N 46°04' W 001°14'0 0.0
2015-Jun-25 03:31N 46°04' W 001°14'0 0.0
2015-Jun-25 02:28N 46°04' W 001°14'0 0.0
2015-Jun-25 01:31N 46°04' W 001°14'0 0.0
2015-Jun-25 00:31N 46°04' W 001°14'0 0.0
2015-Jun-24 23:31N 46°04' W 001°14'0 0.0
2015-Jun-24 22:31N 46°04' W 001°14'0 0.0
2015-Jun-24 21:28N 46°04' W 001°14'0 0.0
2015-Jun-24 20:31N 46°04' W 001°14'0 0.0
2015-Jun-24 19:31N 46°04' W 001°14'0 0.0
2015-Jun-24 18:31N 46°04' W 001°14'0 0.0
2015-Jun-24 17:31N 46°04' W 001°14'0 0.0
2015-Jun-24 16:28N 46°04' W 001°14'0 0.0
2015-Jun-24 15:31N 46°04' W 001°14'0 0.0
2015-Jun-24 14:28N 46°04' W 001°14'0 0.0
2015-Jun-24 13:25N 46°04' W 001°14'0 0.0
2015-Jun-24 12:13N 46°04' W 001°14'0 0.0
2015-Jun-24 11:31N 46°04' W 001°14'0 0.0
2015-Jun-24 10:28N 46°04' W 001°14'0 0.1
2015-Jun-24 09:31N 46°04' W 001°14'0 0.0
2015-Jun-24 08:31N 46°04' W 001°14'0 0.0
2015-Jun-24 07:31N 46°04' W 001°14'0 0.0
2015-Jun-24 06:31N 46°04' W 001°14'0 0.0
2015-Jun-24 05:28N 46°04' W 001°14'0 0.0
2015-Jun-24 04:28N 46°04' W 001°14'0 0.0
2015-Jun-24 03:31N 46°04' W 001°14'0 0.0
2015-Jun-24 02:31N 46°04' W 001°14'0 0.0
2015-Jun-24 01:31N 46°04' W 001°14'0 0.0
2015-Jun-24 00:31N 46°04' W 001°14'0 0.0
2015-Jun-23 23:31N 46°04' W 001°14'0 0.0
2015-Jun-23 22:31N 46°04' W 001°14'0 0.1
2015-Jun-23 21:31N 46°04' W 001°14'0 0.0
2015-Jun-23 20:28N 46°04' W 001°14'0 0.0
2015-Jun-23 19:31N 46°04' W 001°14'0 0.0
2015-Jun-23 19:04N 46°04' W 001°14'175 6.9
2015-Jun-22 17:31N 43°27' W 003°04'  
Track history (hours):
 
Tides and Currents Weather Stations Pressure Air Temp Water Temp Dewpoint Dewpoint Depression Visibility Wind Speed Wind Dir Waves Ship Positions

Juergen K

Last reported at 2015-Jul-01 06:32 UTC. Time now 2015-Jul-02 03:38 UTC.
Position N 46°02' W 001°34'.

Length 89 m; draft 5.2 m.

Type: Cargo ship. MMSI: 244329000.

Date/timePositionNaut miles runAvg speedWind from/ knotsBaromVisibWave heightAir tempDewpointWater temp
2015-Jul-01 06:32N 46°02' W 001°34'1010.3
2015-Jul-01 05:33N 46°05' W 001°20'8 8.5
2015-Jul-01 04:33N 45°60' W 001°11'8 7.6
2015-Jul-01 03:31N 45°58' W 000°60'2 2.3
2015-Jul-01 02:29N 45°57' W 000°56'3 0.1
2015-Jun-30 00:33N 45°56' W 001°01'8 7.7
2015-Jun-29 23:34N 45°60' W 001°10'4 4.2
2015-Jun-29 22:31N 46°04' W 001°14'0 0.0
2015-Jun-29 21:31N 46°04' W 001°14'0 0.0
2015-Jun-29 20:28N 46°04' W 001°14'0 0.0
2015-Jun-29 19:31N 46°04' W 001°14'0 0.0
2015-Jun-29 18:28N 46°04' W 001°14'0 0.0
2015-Jun-29 17:31N 46°04' W 001°14'0 0.1
2015-Jun-29 16:31N 46°04' W 001°14'0 0.0
2015-Jun-29 15:31N 46°04' W 001°14'0 0.0
2015-Jun-29 14:31N 46°04' W 001°14'0 0.0
2015-Jun-29 13:28N 46°04' W 001°14'0 0.0
2015-Jun-29 12:28N 46°04' W 001°14'0 0.0
2015-Jun-29 11:31N 46°04' W 001°14'0 0.0
2015-Jun-29 10:28N 46°04' W 001°14'0 0.0
2015-Jun-29 09:28N 46°04' W 001°14'0 0.0
2015-Jun-29 08:31N 46°04' W 001°14'0 0.0
2015-Jun-29 07:28N 46°04' W 001°14'0 0.0
2015-Jun-29 06:31N 46°04' W 001°14'0 0.0
2015-Jun-29 05:31N 46°04' W 001°14'0 0.0
2015-Jun-29 04:28N 46°04' W 001°14'0 0.1
2015-Jun-29 03:31N 46°04' W 001°14'0 0.0
2015-Jun-29 02:31N 46°04' W 001°14'0 0.0
2015-Jun-29 01:31N 46°04' W 001°14'0 0.0
2015-Jun-29 00:31N 46°04' W 001°14'0 0.0
2015-Jun-28 23:28N 46°04' W 001°14'0 0.0
2015-Jun-28 22:31N 46°04' W 001°14'0 0.0
2015-Jun-28 21:28N 46°04' W 001°14'0 0.0
2015-Jun-28 20:31N 46°04' W 001°14'0 0.0
2015-Jun-28 19:22N 46°04' W 001°14'0 0.0
2015-Jun-28 18:31N 46°04' W 001°14'0 0.0
2015-Jun-28 17:31N 46°04' W 001°14'0 0.0
2015-Jun-28 16:31N 46°04' W 001°14'0 0.0
2015-Jun-28 15:31N 46°04' W 001°14'0 0.0
2015-Jun-28 14:31N 46°04' W 001°14'0 0.0
2015-Jun-28 13:28N 46°04' W 001°14'0 0.0
2015-Jun-28 12:31N 46°04' W 001°14'0 0.0
2015-Jun-28 11:31N 46°04' W 001°14'0 0.0
2015-Jun-28 10:31N 46°04' W 001°14'0 0.0
2015-Jun-28 09:31N 46°04' W 001°14'0 0.0
2015-Jun-28 08:31N 46°04' W 001°14'0 0.0
2015-Jun-28 07:31N 46°04' W 001°14'0 0.0
2015-Jun-28 06:28N 46°04' W 001°14'0 0.0
2015-Jun-28 05:31N 46°04' W 001°14'0 0.0
2015-Jun-28 04:31N 46°04' W 001°14'0 0.0
2015-Jun-28 03:28N 46°04' W 001°14'0 0.0
2015-Jun-28 02:31N 46°04' W 001°14'0 0.1
2015-Jun-28 01:31N 46°04' W 001°14'0 0.0
2015-Jun-28 00:31N 46°04' W 001°14'0 0.0
2015-Jun-27 23:31N 46°04' W 001°14'0 0.0
2015-Jun-27 22:31N 46°04' W 001°14'0 0.0
2015-Jun-27 21:31N 46°04' W 001°14'0 0.0
2015-Jun-27 20:28N 46°04' W 001°14'0 0.0
2015-Jun-27 19:31N 46°04' W 001°14'0 0.0
2015-Jun-27 18:31N 46°04' W 001°14'0 0.0
2015-Jun-27 17:28N 46°04' W 001°14'0 0.0
2015-Jun-27 16:28N 46°04' W 001°14'0 0.0
2015-Jun-27 15:28N 46°04' W 001°14'0 0.0
2015-Jun-27 14:31N 46°04' W 001°14'0 0.0
2015-Jun-27 13:28N 46°04' W 001°14'0 0.0
2015-Jun-27 12:28N 46°04' W 001°14'0 0.0
2015-Jun-27 11:31N 46°04' W 001°14'0 0.0
2015-Jun-27 10:31N 46°04' W 001°14'0 0.0
2015-Jun-27 09:31N 46°04' W 001°14'0 0.0
2015-Jun-27 08:31N 46°04' W 001°14'0 0.0
2015-Jun-27 07:31N 46°04' W 001°14'0 0.0
2015-Jun-27 06:25N 46°04' W 001°14'0 0.1
2015-Jun-27 05:28N 46°04' W 001°14'0 0.0
2015-Jun-27 04:31N 46°04' W 001°14'0 0.0
2015-Jun-27 03:28N 46°04' W 001°14'0 0.1
2015-Jun-27 02:28N 46°04' W 001°14'0 0.0
2015-Jun-27 01:31N 46°04' W 001°14'0 0.0
2015-Jun-27 00:31N 46°04' W 001°14'0 0.0
2015-Jun-26 23:31N 46°04' W 001°14'0 0.0
2015-Jun-26 22:28N 46°04' W 001°14'0 0.0
2015-Jun-26 21:28N 46°04' W 001°14'0 0.0
2015-Jun-26 20:28N 46°04' W 001°14'0 0.0
2015-Jun-26 19:31N 46°04' W 001°14'0 0.0
2015-Jun-26 18:28N 46°04' W 001°14'0 0.0
2015-Jun-26 17:28N 46°04' W 001°14'0 0.0
2015-Jun-26 16:31N 46°04' W 001°14'0 0.0
2015-Jun-26 15:31N 46°04' W 001°14'0 0.1
2015-Jun-26 14:28N 46°04' W 001°14'0 0.0
2015-Jun-26 13:25N 46°04' W 001°14'0 0.0
2015-Jun-26 12:31N 46°04' W 001°14'0 0.0
2015-Jun-26 11:28N 46°04' W 001°14'0 0.0
2015-Jun-26 10:31N 46°04' W 001°14'0 0.0
2015-Jun-26 09:31N 46°04' W 001°14'0 0.0
2015-Jun-26 08:31N 46°04' W 001°14'0 0.0
2015-Jun-26 07:31N 46°04' W 001°14'0 0.1
2015-Jun-26 06:31N 46°04' W 001°14'0 0.0
2015-Jun-26 05:28N 46°04' W 001°14'0 0.1
2015-Jun-26 04:31N 46°04' W 001°14'0 0.0
2015-Jun-26 03:31N 46°04' W 001°14'0 0.0
2015-Jun-26 02:28N 46°04' W 001°14'0 0.0
2015-Jun-26 01:31N 46°04' W 001°14'0 0.0
2015-Jun-26 00:31N 46°04' W 001°14'0 0.0
2015-Jun-25 23:31N 46°04' W 001°14'0 0.0
2015-Jun-25 22:31N 46°04' W 001°14'0 0.0
2015-Jun-25 21:28N 46°04' W 001°14'0 0.0
2015-Jun-25 20:31N 46°04' W 001°14'0 0.0
2015-Jun-25 19:31N 46°04' W 001°14'0 0.0
2015-Jun-25 18:28N 46°04' W 001°14'0 0.0
2015-Jun-25 17:31N 46°04' W 001°14'0 0.0
2015-Jun-25 16:31N 46°04' W 001°14'0 0.0
2015-Jun-25 15:28N 46°04' W 001°14'0 0.0
2015-Jun-25 14:31N 46°04' W 001°14'0 0.0
2015-Jun-25 13:31N 46°04' W 001°14'0 0.1
2015-Jun-25 12:31N 46°04' W 001°14'0 0.0
2015-Jun-25 11:31N 46°04' W 001°14'0 0.0
2015-Jun-25 10:31N 46°04' W 001°14'0 0.0
2015-Jun-25 09:28N 46°04' W 001°14'0 0.0
2015-Jun-25 08:28N 46°04' W 001°14'0 0.0
2015-Jun-25 07:31N 46°04' W 001°14'0 0.0
2015-Jun-25 06:31N 46°04' W 001°14'0 0.0
2015-Jun-25 05:31N 46°04' W 001°14'0 0.1
2015-Jun-25 04:31N 46°04' W 001°14'0 0.0
2015-Jun-25 03:31N 46°04' W 001°14'0 0.0
2015-Jun-25 02:28N 46°04' W 001°14'0 0.0
2015-Jun-25 01:31N 46°04' W 001°14'0 0.0
2015-Jun-25 00:31N 46°04' W 001°14'0 0.0
2015-Jun-24 23:31N 46°04' W 001°14'0 0.0
2015-Jun-24 22:31N 46°04' W 001°14'0 0.0
2015-Jun-24 21:28N 46°04' W 001°14'0 0.0
2015-Jun-24 20:31N 46°04' W 001°14'0 0.0
2015-Jun-24 19:31N 46°04' W 001°14'0 0.0
2015-Jun-24 18:31N 46°04' W 001°14'0 0.0
2015-Jun-24 17:31N 46°04' W 001°14'0 0.0
2015-Jun-24 16:28N 46°04' W 001°14'0 0.0
2015-Jun-24 15:31N 46°04' W 001°14'0 0.0
2015-Jun-24 14:28N 46°04' W 001°14'0 0.0
2015-Jun-24 13:25N 46°04' W 001°14'0 0.0
2015-Jun-24 12:13N 46°04' W 001°14'0 0.0
2015-Jun-24 11:31N 46°04' W 001°14'0 0.0
2015-Jun-24 10:28N 46°04' W 001°14'0 0.1
2015-Jun-24 09:31N 46°04' W 001°14'0 0.0
2015-Jun-24 08:31N 46°04' W 001°14'0 0.0
2015-Jun-24 07:31N 46°04' W 001°14'0 0.0
2015-Jun-24 06:31N 46°04' W 001°14'0 0.0
2015-Jun-24 05:28N 46°04' W 001°14'0 0.0
2015-Jun-24 04:28N 46°04' W 001°14'0 0.0
2015-Jun-24 03:31N 46°04' W 001°14'0 0.0
2015-Jun-24 02:31N 46°04' W 001°14'0 0.0
2015-Jun-24 01:31N 46°04' W 001°14'0 0.0
2015-Jun-24 00:31N 46°04' W 001°14'0 0.0
2015-Jun-23 23:31N 46°04' W 001°14'0 0.0
2015-Jun-23 22:31N 46°04' W 001°14'0 0.1
2015-Jun-23 21:31N 46°04' W 001°14'0 0.0
2015-Jun-23 20:28N 46°04' W 001°14'0 0.0
2015-Jun-23 19:31N 46°04' W 001°14'0 0.0
2015-Jun-23 19:04N 46°04' W 001°14'175 6.9
2015-Jun-22 17:31N 43°27' W 003°04'  

Dump ship's entire track history